»·PEaware :: AAL2273 KSAN-KLAS

AAL2273 :: KSAN-KLAS

FLIGHT INFORMATION

Flight Status: Arrived
Operator:
American Airlines
More flights by this operator :: More flights under this callsign
Pilot: Maxwell P. (17296)
Aircraft: BOEING 737-800
(B738)
More flights by this aircraft type
Origin: KSAN San Diego Intl-Lindbergh
United States
Destination: KLAS McCarran Intl
United States
More flights between these airports :: More routes between these airports
Route: +PEBLE6 SXC LAX DAG MISEN KEPEC6
File this flight plan on PilotEdge
Remarks: Sample flight plan
Altitude:
(Current/Filed)
22,000ft
Speed:
(Current/Filed)
0kts
Departed: 20-Nov-17 02:31 PM
Arrived: 20-Nov-17 03:46 PM
Distance/Time
Traveled:
225nm/1:14
Distance/Time
To Go:
Arrived

Flight Plot

Page will automatically refresh every two minutes.

Flight plan parsing failed; only flown route is shown


Map Options




Map Legend


Flown Route
Filed Route
Departure Airport
Arrival Airport
Navaid (VOR, NDB)
Fix

Horizontal Profiles

Position Reports

Time Latitude Longitude Heading Altitude Ground
Speed
20-Nov-17 13:46 32.734070 -117.201770 181 19ft 0kts
20-Nov-17 13:47 32.734060 -117.201770 181 19ft 0kts
20-Nov-17 13:48 32.734060 -117.201770 181 19ft 0kts
20-Nov-17 13:49 32.734060 -117.201770 181 19ft 0kts
20-Nov-17 13:50 32.734060 -117.201770 181 19ft 0kts
20-Nov-17 13:51 32.734060 -117.201770 181 19ft 0kts
20-Nov-17 13:52 32.734060 -117.201770 181 19ft 0kts
20-Nov-17 13:53 32.734060 -117.201770 181 19ft 0kts
20-Nov-17 13:54 32.734060 -117.201770 181 19ft 0kts
20-Nov-17 13:55 32.734060 -117.201770 181 19ft 0kts
20-Nov-17 13:56 32.734060 -117.201770 181 19ft 0kts
20-Nov-17 13:57 32.734060 -117.201770 181 19ft 0kts
20-Nov-17 13:58 32.734060 -117.201770 181 19ft 0kts
20-Nov-17 13:59 32.734060 -117.201770 181 19ft 0kts
20-Nov-17 14:00 32.734060 -117.201770 181 19ft 0kts
20-Nov-17 14:01 32.734060 -117.201770 181 19ft 0kts
20-Nov-17 14:02 32.734060 -117.201770 181 19ft 0kts
20-Nov-17 14:03 32.734060 -117.201770 181 19ft 0kts
20-Nov-17 14:04 32.734060 -117.201770 181 19ft 0kts
20-Nov-17 14:05 32.734060 -117.201770 181 19ft 0kts
20-Nov-17 14:06 32.734060 -117.201770 181 19ft 0kts
20-Nov-17 14:07 32.734060 -117.201770 181 19ft 0kts
20-Nov-17 14:08 32.734060 -117.201770 181 19ft 0kts
20-Nov-17 14:09 32.734060 -117.201770 181 19ft 0kts
20-Nov-17 14:10 32.734060 -117.201770 181 19ft 0kts
20-Nov-17 14:11 32.734060 -117.201770 181 19ft 0kts
20-Nov-17 14:12 32.734060 -117.201770 181 19ft 0kts
20-Nov-17 14:13 32.734060 -117.201770 181 19ft 0kts
20-Nov-17 14:14 32.734060 -117.201770 181 19ft 0kts
20-Nov-17 14:15 32.734060 -117.201770 181 19ft 0kts
20-Nov-17 14:16 32.734060 -117.201770 181 19ft 0kts
20-Nov-17 14:17 32.734060 -117.201770 181 19ft 0kts
20-Nov-17 14:18 32.734060 -117.201770 181 19ft 0kts
20-Nov-17 14:19 32.734060 -117.201770 181 19ft 0kts
20-Nov-17 14:20 32.734060 -117.201770 181 19ft 0kts
20-Nov-17 14:21 32.734433 -117.201780 116 19ft 0kts
20-Nov-17 14:22 32.734441 -117.201822 84 19ft 0kts
20-Nov-17 14:23 32.734441 -117.201822 83 19ft 0kts
20-Nov-17 14:24 32.734441 -117.201822 83 19ft 0kts
20-Nov-17 14:25 32.734441 -117.201822 83 19ft 0kts
20-Nov-17 14:26 32.734903 -117.200986 67 19ft 11kts
20-Nov-17 14:27 32.734249 -117.196793 106 19ft 21kts
20-Nov-17 14:28 32.733087 -117.192040 106 22ft 24kts
20-Nov-17 14:29 32.731784 -117.186639 106 19ft 28kts
20-Nov-17 14:30 32.730064 -117.179540 107 20ft 32kts
20-Nov-17 14:31 32.729730 -117.178160 105 22ft 0kts
20-Nov-17 14:32 32.729492 -117.176833 81 24ft 0kts
20-Nov-17 14:33 32.729897 -117.175852 34 25ft 12kts
20-Nov-17 14:34 32.730343 -117.176408 286 25ft 0kts
20-Nov-17 14:35 32.730343 -117.176408 286 25ft 0kts
20-Nov-17 14:36 32.732954 -117.187023 286 22ft 142kts
20-Nov-17 14:37 32.741897 -117.223529 300 1913ft 176kts
20-Nov-17 14:38 32.764530 -117.257355 309 4377ft 185kts
20-Nov-17 14:39 32.787831 -117.292574 307 6724ft 193kts
20-Nov-17 14:40 32.815663 -117.338356 305 9200ft 213kts
20-Nov-17 14:41 32.838028 -117.376611 304 11018ft 229kts
20-Nov-17 14:42 32.874562 -117.428080 323 13473ft 243kts
20-Nov-17 14:43 32.915337 -117.460852 328 15140ft 243kts
20-Nov-17 14:44 32.948386 -117.485154 328 16334ft 222kts
20-Nov-17 14:45 32.986208 -117.522996 309 17974ft 200kts
20-Nov-17 14:46 33.010053 -117.561892 307 19082ft 195kts
20-Nov-17 14:47 33.038464 -117.608787 306 20305ft 199kts
20-Nov-17 14:48 33.069305 -117.659838 305 21369ft 217kts
20-Nov-17 14:49 33.098530 -117.707190 306 21938ft 241kts
20-Nov-17 14:50 33.128590 -117.752440 307 22093ft 271kts
20-Nov-17 14:51 33.170853 -117.817382 303 22143ft 314kts
20-Nov-17 14:52 33.203748 -117.901768 293 22192ft 356kts
20-Nov-17 14:53 33.236873 -118.001612 292 22159ft 384kts
20-Nov-17 14:54 33.270108 -118.103397 292 22146ft 393kts
20-Nov-17 14:55 33.307691 -118.217351 292 22119ft 392kts
20-Nov-17 14:56 33.344926 -118.329806 292 22118ft 392kts
20-Nov-17 14:57 33.399908 -118.412094 341 22053ft 403kts
20-Nov-17 14:58 33.502445 -118.414153 355 22146ft 417kts
20-Nov-17 14:59 33.585788 -118.413829 354 22106ft 414kts
20-Nov-17 15:00 33.683302 -118.416128 353 22089ft 413kts
20-Nov-17 15:01 33.772957 -118.419409 352 22078ft 413kts
20-Nov-17 15:02 33.879978 -118.424284 352 22078ft 412kts
20-Nov-17 15:03 33.959669 -118.370522 51 22102ft 457kts
20-Nov-17 15:04 34.010209 -118.276671 51 22100ft 463kts
20-Nov-17 15:05 34.055858 -118.192940 50 22073ft 461kts
20-Nov-17 15:06 34.096893 -118.119349 50 22073ft 460kts
20-Nov-17 15:07 34.137539 -118.048164 49 22075ft 460kts
20-Nov-17 15:08 34.187280 -117.962050 49 22081ft 460kts
20-Nov-17 15:09 34.238861 -117.871710 49 22090ft 460kts
20-Nov-17 15:10 34.289782 -117.781304 50 22096ft 460kts
20-Nov-17 15:11 34.340921 -117.689849 50 22099ft 461kts
20-Nov-17 15:12 34.391684 -117.598808 50 22112ft 461kts
20-Nov-17 15:13 34.440452 -117.511222 50 22125ft 461kts
20-Nov-17 15:14 34.486730 -117.427929 50 22127ft 461kts
20-Nov-17 15:15 34.527499 -117.354261 50 22070ft 441kts
20-Nov-17 15:16 34.567808 -117.280030 50 22087ft 428kts
20-Nov-17 15:17 34.614821 -117.193607 50 22131ft 435kts
20-Nov-17 15:18 34.666902 -117.098911 50 22129ft 435kts
20-Nov-17 15:19 34.725987 -116.992463 50 22128ft 433kts
20-Nov-17 15:20 34.786823 -116.883732 50 22128ft 432kts
20-Nov-17 15:21 34.846976 -116.776095 50 22128ft 432kts
20-Nov-17 15:22 34.908650 -116.665364 50 22129ft 430kts
20-Nov-17 15:23 34.973726 -116.557839 44 22129ft 419kts
20-Nov-17 15:24 35.046354 -116.461581 38 22135ft 408kts
20-Nov-17 15:25 35.115611 -116.372897 46 22158ft 413kts
20-Nov-17 15:26 35.173415 -116.281028 46 22126ft 415kts
20-Nov-17 15:27 35.229734 -116.194157 46 21394ft 410kts
20-Nov-17 15:28 35.294100 -116.097358 45 20603ft 402kts
20-Nov-17 15:29 35.342081 -116.025616 45 20020ft 398kts
20-Nov-17 15:30 35.399467 -115.939687 46 19314ft 393kts
20-Nov-17 15:31 35.452991 -115.859163 46 18550ft 390kts
20-Nov-17 15:32 35.510618 -115.772819 47 16516ft 375kts
20-Nov-17 15:33 35.566384 -115.689834 47 14762ft 373kts
20-Nov-17 15:34 35.616546 -115.615146 48 13627ft 353kts
20-Nov-17 15:35 35.673507 -115.529573 48 13106ft 356kts
20-Nov-17 15:36 35.723869 -115.453091 48 13031ft 358kts
20-Nov-17 15:37 35.778118 -115.369705 49 13012ft 358kts
20-Nov-17 15:38 35.825860 -115.295485 49 13009ft 359kts
20-Nov-17 15:39 35.870513 -115.225520 49 13008ft 359kts
20-Nov-17 15:40 35.919024 -115.156803 37 12453ft 358kts
20-Nov-17 15:41 35.974686 -115.101522 37 10842ft 350kts
20-Nov-17 15:42 36.010802 -115.029299 94 9024ft 347kts
20-Nov-17 15:43 36.003726 -114.938556 92 7377ft 328kts
20-Nov-17 15:44 36.004397 -114.852176 62 5590ft 307kts
20-Nov-17 15:45 36.063577 -114.841573 304 5037ft 275kts
20-Nov-17 15:46 36.074686 -114.916437 281 5030ft 276kts
20-Nov-17 15:47 36.077426 -114.979287 265 4421ft 272kts
20-Nov-17 15:48 36.075163 -115.036766 270 3496ft 250kts
20-Nov-17 15:49 36.075927 -115.084370 272 2689ft 212kts
20-Nov-17 15:50 36.076377 -115.124410 269 2086ft 172kts
20-Nov-17 15:51 36.076564 -115.145637 281 2102ft 15kts
20-Nov-17 15:52 36.077785 -115.146921 331 2104ft 9kts
20-Nov-17 15:53 36.079414 -115.146085 342 2096ft 9kts
20-Nov-17 15:54 36.079632 -115.146185 338 2095ft 0kts
20-Nov-17 15:55 36.079632 -115.146185 338 2095ft 0kts
20-Nov-17 15:56 36.079632 -115.146185 338 2095ft 0kts
20-Nov-17 15:57 36.079632 -115.146185 338 2095ft 0kts
20-Nov-17 16:00 36.079632 -115.146185 338 2095ft 0kts
20-Nov-17 16:01 36.079632 -115.146185 338 2095ft 0kts
20-Nov-17 16:02 36.079632 -115.146185 338 2095ft 0kts
20-Nov-17 16:03 36.079632 -115.146185 338 2095ft 0kts
20-Nov-17 16:04 36.079632 -115.146185 338 2095ft 0kts
20-Nov-17 16:05 36.079632 -115.146185 338 2095ft 0kts

Navigation Log

Ident Type
Flight plan parsing failed, navigation log unavailable